sensor_id;sensor_type;location;lat;lon;timestamp;P1;durP1;ratioP1;P2;durP2;ratioP2
54388;SDS011;40975;50.390;8.640;2023-02-24T00:01:18;19.50;;;7.50;;
54388;SDS011;40975;50.390;8.640;2023-02-24T00:03:52;16.83;;;6.32;;
54388;SDS011;40975;50.390;8.640;2023-02-24T00:06:22;20.98;;;6.53;;
54388;SDS011;40975;50.390;8.640;2023-02-24T00:08:49;18.25;;;7.35;;
54388;SDS011;40975;50.390;8.640;2023-02-24T00:11:15;16.52;;;6.55;;
54388;SDS011;40975;50.390;8.640;2023-02-24T00:13:42;19.33;;;7.13;;
54388;SDS011;40975;50.390;8.640;2023-02-24T00:16:12;21.08;;;7.47;;
54388;SDS011;40975;50.390;8.640;2023-02-24T00:18:40;18.30;;;7.88;;
54388;SDS011;40975;50.390;8.640;2023-02-24T00:21:13;21.75;;;8.00;;
54388;SDS011;40975;50.390;8.640;2023-02-24T00:23:43;19.80;;;7.60;;
54388;SDS011;40975;50.390;8.640;2023-02-24T00:26:11;21.55;;;8.35;;
54388;SDS011;40975;50.390;8.640;2023-02-24T00:28:38;23.35;;;8.50;;
54388;SDS011;40975;50.390;8.640;2023-02-24T00:31:08;18.65;;;7.13;;
54388;SDS011;40975;50.390;8.640;2023-02-24T00:33:35;24.45;;;8.52;;
54388;SDS011;40975;50.390;8.640;2023-02-24T00:36:07;16.55;;;6.45;;
54388;SDS011;40975;50.390;8.640;2023-02-24T00:38:38;19.13;;;6.80;;
54388;SDS011;40975;50.390;8.640;2023-02-24T00:41:16;16.75;;;6.95;;
54388;SDS011;40975;50.390;8.640;2023-02-24T00:43:44;19.58;;;7.07;;
54388;SDS011;40975;50.390;8.640;2023-02-24T00:46:17;15.68;;;6.32;;
54388;SDS011;40975;50.390;8.640;2023-02-24T00:48:45;19.48;;;7.20;;
54388;SDS011;40975;50.390;8.640;2023-02-24T00:51:14;15.60;;;5.72;;
54388;SDS011;40975;50.390;8.640;2023-02-24T00:53:41;17.13;;;6.97;;
54388;SDS011;40975;50.390;8.640;2023-02-24T00:56:09;14.60;;;6.53;;
54388;SDS011;40975;50.390;8.640;2023-02-24T00:58:42;13.95;;;5.15;;
54388;SDS011;40975;50.390;8.640;2023-02-24T01:01:15;13.63;;;5.65;;
54388;SDS011;40975;50.390;8.640;2023-02-24T01:03:43;15.77;;;5.15;;
54388;SDS011;40975;50.390;8.640;2023-02-24T01:06:10;13.95;;;6.38;;
54388;SDS011;40975;50.390;8.640;2023-02-24T01:08:37;15.82;;;6.18;;
54388;SDS011;40975;50.390;8.640;2023-02-24T01:11:11;16.35;;;5.47;;
54388;SDS011;40975;50.390;8.640;2023-02-24T01:14:02;17.00;;;6.18;;
54388;SDS011;40975;50.390;8.640;2023-02-24T01:16:29;16.02;;;6.35;;
54388;SDS011;40975;50.390;8.640;2023-02-24T01:18:55;14.27;;;5.45;;
54388;SDS011;40975;50.390;8.640;2023-02-24T01:21:20;13.88;;;5.60;;
54388;SDS011;40975;50.390;8.640;2023-02-24T01:23:46;14.95;;;5.13;;
54388;SDS011;40975;50.390;8.640;2023-02-24T01:26:13;12.65;;;5.63;;
54388;SDS011;40975;50.390;8.640;2023-02-24T01:28:38;11.38;;;5.15;;
54388;SDS011;40975;50.390;8.640;2023-02-24T01:31:04;8.73;;;3.85;;
54388;SDS011;40975;50.390;8.640;2023-02-24T01:33:31;9.55;;;3.50;;
54388;SDS011;40975;50.390;8.640;2023-02-24T01:36:13;8.60;;;3.10;;
54388;SDS011;40975;50.390;8.640;2023-02-24T01:38:47;6.95;;;2.97;;
54388;SDS011;40975;50.390;8.640;2023-02-24T01:41:17;6.88;;;2.92;;
54388;SDS011;40975;50.390;8.640;2023-02-24T01:46:36;9.45;;;3.65;;
54388;SDS011;40975;50.390;8.640;2023-02-24T01:49:13;7.40;;;3.40;;
54388;SDS011;40975;50.390;8.640;2023-02-24T01:51:43;13.35;;;4.50;;
54388;SDS011;40975;50.390;8.640;2023-02-24T01:54:16;11.35;;;3.42;;
54388;SDS011;40975;50.390;8.640;2023-02-24T01:56:48;7.32;;;3.13;;
54388;SDS011;40975;50.390;8.640;2023-02-24T01:59:16;7.35;;;3.20;;
54388;SDS011;40975;50.390;8.640;2023-02-24T02:01:44;8.13;;;3.00;;
54388;SDS011;40975;50.390;8.640;2023-02-24T02:04:33;6.03;;;2.28;;
54388;SDS011;40975;50.390;8.640;2023-02-24T02:07:00;5.38;;;2.45;;
54388;SDS011;40975;50.390;8.640;2023-02-24T02:09:29;5.20;;;2.30;;
54388;SDS011;40975;50.390;8.640;2023-02-24T02:11:56;6.97;;;2.17;;
54388;SDS011;40975;50.390;8.640;2023-02-24T02:14:22;5.05;;;2.33;;
54388;SDS011;40975;50.390;8.640;2023-02-24T02:16:58;5.82;;;2.50;;
54388;SDS011;40975;50.390;8.640;2023-02-24T02:20:06;7.15;;;3.63;;
54388;SDS011;40975;50.390;8.640;2023-02-24T02:22:52;10.00;;;3.72;;
54388;SDS011;40975;50.390;8.640;2023-02-24T02:44:38;13.43;;;4.68;;
54388;SDS011;40975;50.390;8.640;2023-02-24T02:47:12;15.23;;;6.13;;
54388;SDS011;40975;50.390;8.640;2023-02-24T02:52:41;17.80;;;6.07;;
54388;SDS011;40975;50.390;8.640;2023-02-24T02:55:13;12.90;;;5.30;;
54388;SDS011;40975;50.390;8.640;2023-02-24T02:57:45;13.27;;;5.25;;
54388;SDS011;40975;50.390;8.640;2023-02-24T03:00:45;17.15;;;6.28;;
54388;SDS011;40975;50.390;8.640;2023-02-24T03:03:11;16.92;;;6.25;;
54388;SDS011;40975;50.390;8.640;2023-02-24T03:05:53;17.75;;;7.45;;
54388;SDS011;40975;50.390;8.640;2023-02-24T03:08:24;16.90;;;6.32;;
54388;SDS011;40975;50.390;8.640;2023-02-24T03:10:53;15.82;;;6.38;;
54388;SDS011;40975;50.390;8.640;2023-02-24T03:13:25;19.95;;;7.38;;
54388;SDS011;40975;50.390;8.640;2023-02-24T03:15:56;20.27;;;6.32;;
54388;SDS011;40975;50.390;8.640;2023-02-24T03:18:29;21.25;;;6.93;;
54388;SDS011;40975;50.390;8.640;2023-02-24T03:21:02;16.13;;;6.90;;
54388;SDS011;40975;50.390;8.640;2023-02-24T03:23:34;22.70;;;8.50;;
54388;SDS011;40975;50.390;8.640;2023-02-24T03:26:10;19.30;;;6.95;;
54388;SDS011;40975;50.390;8.640;2023-02-24T03:28:47;19.65;;;6.97;;
54388;SDS011;40975;50.390;8.640;2023-02-24T03:31:36;21.80;;;7.55;;
54388;SDS011;40975;50.390;8.640;2023-02-24T03:34:08;23.63;;;8.80;;
54388;SDS011;40975;50.390;8.640;2023-02-24T03:36:38;22.95;;;8.65;;
54388;SDS011;40975;50.390;8.640;2023-02-24T03:39:04;28.23;;;8.27;;
54388;SDS011;40975;50.390;8.640;2023-02-24T03:41:38;20.05;;;7.68;;
54388;SDS011;40975;50.390;8.640;2023-02-24T03:44:26;26.15;;;8.38;;
54388;SDS011;40975;50.390;8.640;2023-02-24T03:46:53;24.60;;;7.72;;
54388;SDS011;40975;50.390;8.640;2023-02-24T03:49:20;25.02;;;7.50;;
54388;SDS011;40975;50.390;8.640;2023-02-24T03:52:02;20.02;;;8.23;;
54388;SDS011;40975;50.390;8.640;2023-02-24T03:54:50;18.48;;;7.13;;
54388;SDS011;40975;50.390;8.640;2023-02-24T04:00:30;20.48;;;6.80;;
54388;SDS011;40975;50.390;8.640;2023-02-24T04:08:36;23.30;;;8.43;;
54388;SDS011;40975;50.390;8.640;2023-02-24T04:11:29;23.02;;;7.60;;
54388;SDS011;40975;50.390;8.640;2023-02-24T04:17:15;21.35;;;7.82;;
54388;SDS011;40975;50.390;8.640;2023-02-24T04:19:48;25.40;;;8.15;;
54388;SDS011;40975;50.390;8.640;2023-02-24T04:22:19;21.70;;;7.53;;
54388;SDS011;40975;50.390;8.640;2023-02-24T04:24:50;27.42;;;8.02;;
54388;SDS011;40975;50.390;8.640;2023-02-24T04:27:19;24.23;;;8.18;;
54388;SDS011;40975;50.390;8.640;2023-02-24T04:29:49;24.77;;;8.38;;
54388;SDS011;40975;50.390;8.640;2023-02-24T04:32:18;19.45;;;7.28;;
54388;SDS011;40975;50.390;8.640;2023-02-24T04:34:48;20.83;;;7.40;;
54388;SDS011;40975;50.390;8.640;2023-02-24T04:37:14;24.25;;;8.15;;
54388;SDS011;40975;50.390;8.640;2023-02-24T04:39:39;25.05;;;9.07;;
54388;SDS011;40975;50.390;8.640;2023-02-24T04:42:15;26.50;;;9.13;;
54388;SDS011;40975;50.390;8.640;2023-02-24T04:44:44;24.30;;;8.65;;
54388;SDS011;40975;50.390;8.640;2023-02-24T04:47:10;30.98;;;10.05;;
54388;SDS011;40975;50.390;8.640;2023-02-24T04:49:36;27.38;;;8.27;;
54388;SDS011;40975;50.390;8.640;2023-02-24T04:52:05;22.33;;;8.85;;
54388;SDS011;40975;50.390;8.640;2023-02-24T04:54:33;27.05;;;9.00;;
54388;SDS011;40975;50.390;8.640;2023-02-24T04:56:58;27.75;;;8.73;;
54388;SDS011;40975;50.390;8.640;2023-02-24T04:59:24;29.73;;;9.48;;
54388;SDS011;40975;50.390;8.640;2023-02-24T05:01:51;26.27;;;9.70;;
54388;SDS011;40975;50.390;8.640;2023-02-24T05:04:17;31.77;;;9.60;;
54388;SDS011;40975;50.390;8.640;2023-02-24T05:06:43;27.00;;;9.15;;
54388;SDS011;40975;50.390;8.640;2023-02-24T05:09:09;28.08;;;9.07;;
54388;SDS011;40975;50.390;8.640;2023-02-24T05:11:42;24.00;;;9.23;;
54388;SDS011;40975;50.390;8.640;2023-02-24T05:14:12;24.17;;;8.23;;
54388;SDS011;40975;50.390;8.640;2023-02-24T05:16:44;26.23;;;8.50;;
54388;SDS011;40975;50.390;8.640;2023-02-24T05:19:12;24.50;;;9.63;;
54388;SDS011;40975;50.390;8.640;2023-02-24T05:21:58;24.00;;;7.57;;
54388;SDS011;40975;50.390;8.640;2023-02-24T05:24:24;25.05;;;8.93;;
54388;SDS011;40975;50.390;8.640;2023-02-24T05:26:51;27.13;;;10.45;;
54388;SDS011;40975;50.390;8.640;2023-02-24T05:29:23;23.08;;;8.98;;
54388;SDS011;40975;50.390;8.640;2023-02-24T05:31:50;29.05;;;10.18;;
54388;SDS011;40975;50.390;8.640;2023-02-24T05:34:18;27.58;;;9.55;;
54388;SDS011;40975;50.390;8.640;2023-02-24T05:36:43;27.35;;;10.10;;
54388;SDS011;40975;50.390;8.640;2023-02-24T05:39:09;26.67;;;8.98;;
54388;SDS011;40975;50.390;8.640;2023-02-24T05:41:37;28.70;;;9.77;;
54388;SDS011;40975;50.390;8.640;2023-02-24T05:44:06;28.80;;;10.57;;
54388;SDS011;40975;50.390;8.640;2023-02-24T05:46:38;27.95;;;9.45;;
54388;SDS011;40975;50.390;8.640;2023-02-24T05:49:05;32.20;;;10.20;;
54388;SDS011;40975;50.390;8.640;2023-02-24T13:17:48;10.07;;;3.25;;
54388;SDS011;40975;50.390;8.640;2023-02-24T13:20:35;9.45;;;3.28;;
54388;SDS011;40975;50.390;8.640;2023-02-24T13:23:02;10.45;;;3.47;;
54388;SDS011;40975;50.390;8.640;2023-02-24T13:25:48;7.13;;;2.92;;
54388;SDS011;40975;50.390;8.640;2023-02-24T13:28:25;6.38;;;2.63;;
54388;SDS011;40975;50.390;8.640;2023-02-24T13:30:59;7.25;;;3.15;;
54388;SDS011;40975;50.390;8.640;2023-02-24T13:33:29;5.40;;;2.45;;
54388;SDS011;40975;50.390;8.640;2023-02-24T13:36:07;6.70;;;2.75;;
54388;SDS011;40975;50.390;8.640;2023-02-24T13:39:06;11.85;;;3.35;;
54388;SDS011;40975;50.390;8.640;2023-02-24T13:41:44;9.88;;;3.60;;
54388;SDS011;40975;50.390;8.640;2023-02-24T13:44:26;10.65;;;3.10;;
54388;SDS011;40975;50.390;8.640;2023-02-24T13:55:37;4.53;;;2.40;;
54388;SDS011;40975;50.390;8.640;2023-02-24T14:03:41;6.30;;;2.65;;
54388;SDS011;40975;50.390;8.640;2023-02-24T14:06:15;5.72;;;2.58;;
54388;SDS011;40975;50.390;8.640;2023-02-24T14:08:50;6.03;;;2.45;;
54388;SDS011;40975;50.390;8.640;2023-02-24T14:11:18;8.70;;;2.55;;
54388;SDS011;40975;50.390;8.640;2023-02-24T14:13:50;7.40;;;3.33;;
54388;SDS011;40975;50.390;8.640;2023-02-24T14:16:51;7.72;;;3.03;;
54388;SDS011;40975;50.390;8.640;2023-02-24T14:19:13;8.18;;;2.55;;
54388;SDS011;40975;50.390;8.640;2023-02-24T14:21:51;6.25;;;2.80;;
54388;SDS011;40975;50.390;8.640;2023-02-24T14:24:18;7.70;;;2.40;;
54388;SDS011;40975;50.390;8.640;2023-02-24T14:29:29;9.85;;;3.40;;
54388;SDS011;40975;50.390;8.640;2023-02-24T14:31:58;9.23;;;3.35;;
54388;SDS011;40975;50.390;8.640;2023-02-24T14:34:24;9.07;;;3.45;;
54388;SDS011;40975;50.390;8.640;2023-02-24T14:36:56;6.97;;;2.67;;
54388;SDS011;40975;50.390;8.640;2023-02-24T14:39:27;7.17;;;2.47;;
54388;SDS011;40975;50.390;8.640;2023-02-24T14:44:33;9.13;;;3.25;;
54388;SDS011;40975;50.390;8.640;2023-02-24T14:47:01;5.45;;;3.35;;
54388;SDS011;40975;50.390;8.640;2023-02-24T14:49:31;8.25;;;3.10;;
54388;SDS011;40975;50.390;8.640;2023-02-24T14:51:59;8.57;;;2.67;;
54388;SDS011;40975;50.390;8.640;2023-02-24T14:57:15;9.63;;;2.65;;
54388;SDS011;40975;50.390;8.640;2023-02-24T14:59:44;10.27;;;3.40;;
54388;SDS011;40975;50.390;8.640;2023-02-24T15:02:14;10.10;;;3.03;;
54388;SDS011;40975;50.390;8.640;2023-02-24T15:04:43;4.55;;;2.58;;
54388;SDS011;40975;50.390;8.640;2023-02-24T15:07:17;8.30;;;2.60;;
54388;SDS011;40975;50.390;8.640;2023-02-24T15:09:46;6.40;;;2.75;;
54388;SDS011;40975;50.390;8.640;2023-02-24T15:12:19;7.85;;;3.35;;
54388;SDS011;40975;50.390;8.640;2023-02-24T15:14:59;10.05;;;3.20;;
54388;SDS011;40975;50.390;8.640;2023-02-24T15:17:28;4.85;;;2.38;;
54388;SDS011;40975;50.390;8.640;2023-02-24T15:19:54;7.50;;;2.65;;
54388;SDS011;40975;50.390;8.640;2023-02-24T15:22:21;8.38;;;2.75;;
54388;SDS011;40975;50.390;8.640;2023-02-24T15:24:50;4.90;;;2.30;;
54388;SDS011;40975;50.390;8.640;2023-02-24T15:29:44;7.90;;;2.45;;
54388;SDS011;40975;50.390;8.640;2023-02-24T15:32:22;5.57;;;2.50;;
54388;SDS011;40975;50.390;8.640;2023-02-24T15:34:50;8.13;;;2.50;;
54388;SDS011;40975;50.390;8.640;2023-02-24T15:37:26;6.32;;;2.92;;
54388;SDS011;40975;50.390;8.640;2023-02-24T15:40:03;8.82;;;3.10;;
54388;SDS011;40975;50.390;8.640;2023-02-24T15:42:32;9.05;;;3.45;;
54388;SDS011;40975;50.390;8.640;2023-02-24T15:45:01;7.32;;;3.00;;
54388;SDS011;40975;50.390;8.640;2023-02-24T15:47:40;5.97;;;2.80;;
54388;SDS011;40975;50.390;8.640;2023-02-24T15:50:08;6.32;;;2.30;;
54388;SDS011;40975;50.390;8.640;2023-02-24T15:52:34;7.03;;;3.05;;
54388;SDS011;40975;50.390;8.640;2023-02-24T15:55:00;5.25;;;2.53;;
54388;SDS011;40975;50.390;8.640;2023-02-24T15:57:27;8.02;;;2.85;;
54388;SDS011;40975;50.390;8.640;2023-02-24T15:59:57;6.10;;;2.38;;
54388;SDS011;40975;50.390;8.640;2023-02-24T16:02:23;3.58;;;2.28;;
54388;SDS011;40975;50.390;8.640;2023-02-24T16:04:49;8.70;;;2.50;;
54388;SDS011;40975;50.390;8.640;2023-02-24T16:07:20;4.80;;;2.10;;
54388;SDS011;40975;50.390;8.640;2023-02-24T16:09:48;4.78;;;2.05;;
54388;SDS011;40975;50.390;8.640;2023-02-24T16:12:17;4.32;;;1.58;;
54388;SDS011;40975;50.390;8.640;2023-02-24T16:14:45;5.05;;;1.77;;
54388;SDS011;40975;50.390;8.640;2023-02-24T16:17:24;3.10;;;1.73;;
54388;SDS011;40975;50.390;8.640;2023-02-24T16:19:52;2.50;;;1.52;;
54388;SDS011;40975;50.390;8.640;2023-02-24T16:22:19;2.85;;;1.90;;
54388;SDS011;40975;50.390;8.640;2023-02-24T16:24:44;5.03;;;2.08;;
54388;SDS011;40975;50.390;8.640;2023-02-24T16:27:13;6.25;;;1.90;;
54388;SDS011;40975;50.390;8.640;2023-02-24T16:29:40;5.28;;;2.10;;
54388;SDS011;40975;50.390;8.640;2023-02-24T16:32:08;5.57;;;2.13;;
54388;SDS011;40975;50.390;8.640;2023-02-24T16:34:35;4.25;;;2.17;;
54388;SDS011;40975;50.390;8.640;2023-02-24T16:37:00;7.35;;;1.75;;
54388;SDS011;40975;50.390;8.640;2023-02-24T16:39:25;4.88;;;2.05;;
54388;SDS011;40975;50.390;8.640;2023-02-24T16:41:51;3.13;;;2.20;;
54388;SDS011;40975;50.390;8.640;2023-02-24T16:44:16;6.40;;;2.67;;
54388;SDS011;40975;50.390;8.640;2023-02-24T16:46:42;5.75;;;1.83;;
54388;SDS011;40975;50.390;8.640;2023-02-24T16:49:08;3.10;;;2.08;;
54388;SDS011;40975;50.390;8.640;2023-02-24T16:51:41;7.18;;;2.05;;
54388;SDS011;40975;50.390;8.640;2023-02-24T16:54:06;4.10;;;1.98;;
54388;SDS011;40975;50.390;8.640;2023-02-24T16:56:32;3.13;;;2.42;;
54388;SDS011;40975;50.390;8.640;2023-02-24T16:58:57;3.53;;;2.10;;
54388;SDS011;40975;50.390;8.640;2023-02-24T17:01:23;3.80;;;2.10;;
54388;SDS011;40975;50.390;8.640;2023-02-24T17:03:49;3.65;;;2.47;;
54388;SDS011;40975;50.390;8.640;2023-02-24T17:06:16;4.93;;;2.53;;
54388;SDS011;40975;50.390;8.640;2023-02-24T17:08:41;2.92;;;1.85;;
54388;SDS011;40975;50.390;8.640;2023-02-24T17:11:11;5.43;;;2.60;;
54388;SDS011;40975;50.390;8.640;2023-02-24T17:13:38;4.97;;;2.20;;
54388;SDS011;40975;50.390;8.640;2023-02-24T17:16:04;5.57;;;2.08;;
54388;SDS011;40975;50.390;8.640;2023-02-24T17:18:29;7.65;;;2.65;;
54388;SDS011;40975;50.390;8.640;2023-02-24T17:20:54;4.70;;;2.85;;
54388;SDS011;40975;50.390;8.640;2023-02-24T17:23:20;7.65;;;3.15;;
54388;SDS011;40975;50.390;8.640;2023-02-24T17:25:46;2.88;;;2.20;;
54388;SDS011;40975;50.390;8.640;2023-02-24T17:28:15;5.60;;;2.38;;
54388;SDS011;40975;50.390;8.640;2023-02-24T17:30:41;2.90;;;2.10;;
54388;SDS011;40975;50.390;8.640;2023-02-24T17:33:07;5.50;;;2.70;;
54388;SDS011;40975;50.390;8.640;2023-02-24T17:35:32;4.22;;;2.13;;
54388;SDS011;40975;50.390;8.640;2023-02-24T17:37:58;3.85;;;2.55;;
54388;SDS011;40975;50.390;8.640;2023-02-24T17:40:23;5.88;;;2.00;;
54388;SDS011;40975;50.390;8.640;2023-02-24T17:42:49;4.88;;;2.75;;
54388;SDS011;40975;50.390;8.640;2023-02-24T17:45:15;4.03;;;2.38;;
54388;SDS011;40975;50.390;8.640;2023-02-24T17:47:41;4.72;;;2.25;;
54388;SDS011;40975;50.390;8.640;2023-02-24T17:50:07;3.78;;;2.30;;
54388;SDS011;40975;50.390;8.640;2023-02-24T17:52:33;4.38;;;2.63;;
54388;SDS011;40975;50.390;8.640;2023-02-24T17:54:59;5.22;;;2.25;;
54388;SDS011;40975;50.390;8.640;2023-02-24T17:57:24;3.50;;;2.53;;
54388;SDS011;40975;50.390;8.640;2023-02-24T17:59:51;5.70;;;2.92;;
54388;SDS011;40975;50.390;8.640;2023-02-24T18:02:16;4.47;;;2.30;;
54388;SDS011;40975;50.390;8.640;2023-02-24T18:04:42;4.47;;;2.80;;
54388;SDS011;40975;50.390;8.640;2023-02-24T18:07:08;4.50;;;2.88;;
54388;SDS011;40975;50.390;8.640;2023-02-24T18:09:35;3.60;;;2.70;;
54388;SDS011;40975;50.390;8.640;2023-02-24T18:12:00;4.13;;;2.53;;
54388;SDS011;40975;50.390;8.640;2023-02-24T18:14:26;5.53;;;2.75;;
54388;SDS011;40975;50.390;8.640;2023-02-24T18:16:51;5.45;;;2.70;;
54388;SDS011;40975;50.390;8.640;2023-02-24T18:19:17;3.92;;;2.55;;
54388;SDS011;40975;50.390;8.640;2023-02-24T18:21:42;5.43;;;2.78;;
54388;SDS011;40975;50.390;8.640;2023-02-24T18:24:08;3.85;;;3.00;;
54388;SDS011;40975;50.390;8.640;2023-02-24T18:26:33;6.00;;;3.47;;
54388;SDS011;40975;50.390;8.640;2023-02-24T18:28:59;5.20;;;3.60;;
54388;SDS011;40975;50.390;8.640;2023-02-24T18:31:25;5.25;;;3.75;;
54388;SDS011;40975;50.390;8.640;2023-02-24T18:33:52;6.90;;;3.83;;
54388;SDS011;40975;50.390;8.640;2023-02-24T18:36:19;4.88;;;3.28;;
54388;SDS011;40975;50.390;8.640;2023-02-24T18:38:44;4.78;;;3.03;;
54388;SDS011;40975;50.390;8.640;2023-02-24T18:41:11;9.65;;;4.10;;
54388;SDS011;40975;50.390;8.640;2023-02-24T18:43:39;8.18;;;3.88;;
54388;SDS011;40975;50.390;8.640;2023-02-24T18:46:06;7.13;;;4.68;;
54388;SDS011;40975;50.390;8.640;2023-02-24T18:48:35;8.60;;;4.57;;
54388;SDS011;40975;50.390;8.640;2023-02-24T18:51:00;8.43;;;4.78;;
54388;SDS011;40975;50.390;8.640;2023-02-24T18:53:27;6.90;;;4.95;;
54388;SDS011;40975;50.390;8.640;2023-02-24T18:55:58;11.70;;;5.10;;
54388;SDS011;40975;50.390;8.640;2023-02-24T18:58:25;9.10;;;5.15;;
54388;SDS011;40975;50.390;8.640;2023-02-24T19:00:50;8.48;;;4.70;;
54388;SDS011;40975;50.390;8.640;2023-02-24T19:03:16;12.02;;;6.07;;
54388;SDS011;40975;50.390;8.640;2023-02-24T19:05:41;12.20;;;5.65;;
54388;SDS011;40975;50.390;8.640;2023-02-24T19:08:07;13.75;;;5.95;;
54388;SDS011;40975;50.390;8.640;2023-02-24T19:10:32;11.00;;;6.22;;
54388;SDS011;40975;50.390;8.640;2023-02-24T19:12:57;9.63;;;5.45;;
54388;SDS011;40975;50.390;8.640;2023-02-24T19:15:23;9.82;;;6.22;;
54388;SDS011;40975;50.390;8.640;2023-02-24T19:17:48;10.82;;;5.50;;
54388;SDS011;40975;50.390;8.640;2023-02-24T19:20:13;11.50;;;6.20;;
54388;SDS011;40975;50.390;8.640;2023-02-24T19:22:39;12.10;;;5.70;;
54388;SDS011;40975;50.390;8.640;2023-02-24T19:25:06;11.48;;;5.30;;
54388;SDS011;40975;50.390;8.640;2023-02-24T19:27:31;7.95;;;4.85;;
54388;SDS011;40975;50.390;8.640;2023-02-24T19:29:57;11.93;;;5.75;;
54388;SDS011;40975;50.390;8.640;2023-02-24T19:32:22;9.88;;;6.00;;
54388;SDS011;40975;50.390;8.640;2023-02-24T19:34:47;12.52;;;6.10;;
54388;SDS011;40975;50.390;8.640;2023-02-24T19:37:13;9.93;;;5.18;;
54388;SDS011;40975;50.390;8.640;2023-02-24T19:39:38;14.88;;;6.22;;
54388;SDS011;40975;50.390;8.640;2023-02-24T19:42:03;10.55;;;5.60;;
54388;SDS011;40975;50.390;8.640;2023-02-24T19:44:30;14.82;;;5.78;;
54388;SDS011;40975;50.390;8.640;2023-02-24T19:46:55;9.38;;;5.78;;
54388;SDS011;40975;50.390;8.640;2023-02-24T19:49:21;9.82;;;5.90;;
54388;SDS011;40975;50.390;8.640;2023-02-24T19:51:46;9.52;;;5.72;;
54388;SDS011;40975;50.390;8.640;2023-02-24T19:54:12;10.18;;;5.40;;
54388;SDS011;40975;50.390;8.640;2023-02-24T19:56:37;9.23;;;4.88;;
54388;SDS011;40975;50.390;8.640;2023-02-24T19:59:05;9.60;;;5.45;;
54388;SDS011;40975;50.390;8.640;2023-02-24T20:01:31;9.18;;;5.80;;
54388;SDS011;40975;50.390;8.640;2023-02-24T20:03:58;8.15;;;5.13;;
54388;SDS011;40975;50.390;8.640;2023-02-24T20:06:25;8.57;;;4.78;;
54388;SDS011;40975;50.390;8.640;2023-02-24T20:08:53;11.18;;;5.60;;
54388;SDS011;40975;50.390;8.640;2023-02-24T20:11:19;13.77;;;6.03;;
54388;SDS011;40975;50.390;8.640;2023-02-24T20:13:45;10.85;;;4.70;;
54388;SDS011;40975;50.390;8.640;2023-02-24T20:16:12;9.48;;;5.22;;
54388;SDS011;40975;50.390;8.640;2023-02-24T20:18:39;10.90;;;6.13;;
54388;SDS011;40975;50.390;8.640;2023-02-24T20:21:05;9.13;;;5.20;;
54388;SDS011;40975;50.390;8.640;2023-02-24T20:23:32;8.38;;;4.70;;
54388;SDS011;40975;50.390;8.640;2023-02-24T20:25:58;9.10;;;5.00;;
54388;SDS011;40975;50.390;8.640;2023-02-24T20:28:24;8.02;;;5.30;;
54388;SDS011;40975;50.390;8.640;2023-02-24T20:30:51;7.20;;;4.10;;
54388;SDS011;40975;50.390;8.640;2023-02-24T20:33:19;9.20;;;4.70;;
54388;SDS011;40975;50.390;8.640;2023-02-24T20:35:44;11.48;;;5.57;;
54388;SDS011;40975;50.390;8.640;2023-02-24T20:38:10;10.35;;;5.88;;
54388;SDS011;40975;50.390;8.640;2023-02-24T20:40:36;9.80;;;5.68;;
54388;SDS011;40975;50.390;8.640;2023-02-24T20:43:02;11.52;;;6.15;;
54388;SDS011;40975;50.390;8.640;2023-02-24T20:45:32;13.05;;;6.03;;
54388;SDS011;40975;50.390;8.640;2023-02-24T20:48:00;13.90;;;6.68;;
54388;SDS011;40975;50.390;8.640;2023-02-24T20:50:26;12.68;;;7.10;;
54388;SDS011;40975;50.390;8.640;2023-02-24T20:52:52;7.75;;;4.82;;
54388;SDS011;40975;50.390;8.640;2023-02-24T20:55:17;12.82;;;5.88;;
54388;SDS011;40975;50.390;8.640;2023-02-24T20:57:43;8.10;;;4.82;;
54388;SDS011;40975;50.390;8.640;2023-02-24T21:00:08;10.90;;;5.57;;
54388;SDS011;40975;50.390;8.640;2023-02-24T21:02:34;12.55;;;5.35;;
54388;SDS011;40975;50.390;8.640;2023-02-24T21:05:04;7.90;;;4.90;;
54388;SDS011;40975;50.390;8.640;2023-02-24T21:07:30;10.70;;;6.00;;
54388;SDS011;40975;50.390;8.640;2023-02-24T21:09:56;12.18;;;5.55;;
54388;SDS011;40975;50.390;8.640;2023-02-24T21:12:21;12.32;;;6.28;;
54388;SDS011;40975;50.390;8.640;2023-02-24T21:14:46;10.10;;;6.00;;
54388;SDS011;40975;50.390;8.640;2023-02-24T21:17:12;13.10;;;6.22;;
54388;SDS011;40975;50.390;8.640;2023-02-24T21:19:37;9.93;;;5.25;;
54388;SDS011;40975;50.390;8.640;2023-02-24T21:22:03;10.63;;;5.63;;
54388;SDS011;40975;50.390;8.640;2023-02-24T21:24:29;10.32;;;5.63;;
54388;SDS011;40975;50.390;8.640;2023-02-24T21:26:55;10.05;;;5.68;;
54388;SDS011;40975;50.390;8.640;2023-02-24T21:29:21;8.75;;;5.35;;
54388;SDS011;40975;50.390;8.640;2023-02-24T21:31:46;10.40;;;5.30;;
54388;SDS011;40975;50.390;8.640;2023-02-24T21:34:13;9.82;;;5.53;;
54388;SDS011;40975;50.390;8.640;2023-02-24T21:36:40;8.02;;;4.75;;
54388;SDS011;40975;50.390;8.640;2023-02-24T21:39:06;7.53;;;4.30;;
54388;SDS011;40975;50.390;8.640;2023-02-24T21:41:31;9.57;;;4.60;;
54388;SDS011;40975;50.390;8.640;2023-02-24T21:43:59;8.27;;;4.38;;
54388;SDS011;40975;50.390;8.640;2023-02-24T21:46:25;6.70;;;3.05;;
54388;SDS011;40975;50.390;8.640;2023-02-24T21:48:56;5.78;;;3.80;;
54388;SDS011;40975;50.390;8.640;2023-02-24T21:51:22;6.60;;;2.72;;
54388;SDS011;40975;50.390;8.640;2023-02-24T21:53:49;8.48;;;3.33;;
54388;SDS011;40975;50.390;8.640;2023-02-24T21:56:18;7.65;;;2.88;;
54388;SDS011;40975;50.390;8.640;2023-02-24T21:58:46;6.93;;;3.15;;
54388;SDS011;40975;50.390;8.640;2023-02-24T22:01:18;9.27;;;2.83;;
54388;SDS011;40975;50.390;8.640;2023-02-24T22:06:11;6.57;;;2.90;;
54388;SDS011;40975;50.390;8.640;2023-02-24T22:08:38;5.20;;;2.55;;
54388;SDS011;40975;50.390;8.640;2023-02-24T22:11:08;3.05;;;2.22;;
54388;SDS011;40975;50.390;8.640;2023-02-24T22:13:34;5.55;;;1.85;;
54388;SDS011;40975;50.390;8.640;2023-02-24T22:16:00;7.38;;;2.30;;
54388;SDS011;40975;50.390;8.640;2023-02-24T22:18:29;3.13;;;1.90;;
54388;SDS011;40975;50.390;8.640;2023-02-24T22:20:54;4.80;;;1.75;;
54388;SDS011;40975;50.390;8.640;2023-02-24T22:23:19;5.25;;;1.73;;
54388;SDS011;40975;50.390;8.640;2023-02-24T22:25:44;3.30;;;1.63;;
54388;SDS011;40975;50.390;8.640;2023-02-24T22:28:10;5.40;;;2.03;;
54388;SDS011;40975;50.390;8.640;2023-02-24T22:30:35;4.15;;;1.63;;
54388;SDS011;40975;50.390;8.640;2023-02-24T22:33:00;5.32;;;1.40;;
54388;SDS011;40975;50.390;8.640;2023-02-24T22:35:26;3.17;;;1.67;;
54388;SDS011;40975;50.390;8.640;2023-02-24T22:37:51;2.90;;;1.33;;
54388;SDS011;40975;50.390;8.640;2023-02-24T22:40:17;3.63;;;1.20;;
54388;SDS011;40975;50.390;8.640;2023-02-24T22:42:43;3.13;;;1.27;;
54388;SDS011;40975;50.390;8.640;2023-02-24T22:45:08;2.83;;;1.23;;
54388;SDS011;40975;50.390;8.640;2023-02-24T22:47:34;4.22;;;1.58;;
54388;SDS011;40975;50.390;8.640;2023-02-24T22:49:59;1.65;;;1.08;;
54388;SDS011;40975;50.390;8.640;2023-02-24T22:52:24;2.28;;;1.38;;
54388;SDS011;40975;50.390;8.640;2023-02-24T22:54:51;2.28;;;1.00;;
54388;SDS011;40975;50.390;8.640;2023-02-24T22:57:16;3.72;;;1.60;;
54388;SDS011;40975;50.390;8.640;2023-02-24T22:59:41;3.63;;;1.42;;
54388;SDS011;40975;50.390;8.640;2023-02-24T23:02:07;6.60;;;1.90;;
54388;SDS011;40975;50.390;8.640;2023-02-24T23:04:33;3.00;;;1.20;;
54388;SDS011;40975;50.390;8.640;2023-02-24T23:07:00;2.80;;;1.67;;
54388;SDS011;40975;50.390;8.640;2023-02-24T23:09:25;3.38;;;1.45;;
54388;SDS011;40975;50.390;8.640;2023-02-24T23:11:52;3.75;;;1.73;;
54388;SDS011;40975;50.390;8.640;2023-02-24T23:14:17;3.10;;;1.60;;
54388;SDS011;40975;50.390;8.640;2023-02-24T23:16:44;3.97;;;2.53;;
54388;SDS011;40975;50.390;8.640;2023-02-24T23:19:15;2.42;;;1.50;;
54388;SDS011;40975;50.390;8.640;2023-02-24T23:21:45;5.30;;;1.63;;
54388;SDS011;40975;50.390;8.640;2023-02-24T23:24:14;2.45;;;1.30;;